Terminal Aerodrome Forecast
Issued by NWS El Paso, TX

Home | Current Version | Previous Version | Text Only | Print | Product List | Glossary On
Versions: 1 2 3 4 5 6 7 8 9 10 11 12 13 14
828
FTUS44 KEPZ 231721
TAFELP
TAF
KELP 231721Z 2318/2418 12005KT P6SM FEW090
     FM232100 06013KT P6SM FEW120
     FM240200 09009KT P6SM SKC
     FM241200 15005KT P6SM SKC=

USA.gov is the U.S. government's official web portal to all federal, state and local government web resources and services.